createdAt,value
2023-07-18T00:01:03.485Z,21.34
2023-07-18T00:03:33.410Z,21.33
2023-07-18T00:06:01.361Z,21.30
2023-07-18T00:08:29.019Z,21.29
2023-07-18T00:10:56.728Z,21.28
2023-07-18T00:13:25.339Z,21.25
2023-07-18T00:15:53.364Z,21.19
2023-07-18T00:18:22.153Z,21.11
2023-07-18T00:20:49.953Z,21.08
2023-07-18T00:23:17.570Z,21.06
2023-07-18T00:25:45.346Z,21.05
2023-07-18T00:28:13.322Z,21.06
2023-07-18T00:30:41.197Z,21.06
2023-07-18T00:33:08.687Z,21.05
2023-07-18T00:35:37.785Z,21.02
2023-07-18T00:38:05.769Z,20.98
2023-07-18T00:40:34.461Z,20.93
2023-07-18T00:43:02.320Z,20.90
2023-07-18T00:45:29.875Z,20.88
2023-07-18T00:47:57.526Z,20.86
2023-07-18T00:50:28.704Z,20.87
2023-07-18T00:52:56.908Z,20.84
2023-07-18T00:55:24.745Z,20.79
2023-07-18T00:57:54.306Z,20.75
2023-07-18T01:00:23.567Z,20.68
2023-07-18T01:02:52.002Z,20.64
2023-07-18T01:05:20.461Z,20.61
2023-07-18T01:07:48.656Z,20.57
2023-07-18T01:10:24.956Z,20.57
2023-07-18T01:12:59.897Z,20.58
2023-07-18T01:15:31.531Z,20.56
2023-07-18T01:18:02.351Z,20.52
2023-07-18T01:20:30.378Z,20.49
2023-07-18T01:23:01.215Z,20.44
2023-07-18T01:25:30.831Z,20.37
2023-07-18T01:28:00.750Z,20.36
2023-07-18T01:30:30.576Z,20.33
2023-07-18T01:32:58.344Z,20.30
2023-07-18T01:35:28.193Z,20.28
2023-07-18T01:37:59.334Z,20.26
2023-07-18T01:40:28.207Z,20.24
2023-07-18T01:42:58.502Z,20.19
2023-07-18T01:45:31.490Z,20.14
2023-07-18T01:48:02.938Z,20.08
2023-07-18T01:50:30.686Z,20.02
2023-07-18T01:52:59.651Z,19.99
2023-07-18T01:55:28.677Z,19.98
2023-07-18T01:57:58.392Z,19.96
2023-07-18T02:00:26.352Z,19.92
2023-07-18T02:02:55.404Z,19.88
2023-07-18T02:05:26.302Z,19.86
2023-07-18T02:07:54.913Z,19.83
2023-07-18T02:10:25.580Z,19.79
2023-07-18T02:12:57.430Z,19.79
2023-07-18T02:15:25.575Z,19.79
2023-07-18T02:17:53.491Z,19.85
2023-07-18T02:20:21.504Z,19.85
2023-07-18T02:22:49.646Z,19.87
2023-07-18T02:25:17.892Z,19.89
2023-07-18T02:27:45.747Z,19.90
2023-07-18T02:30:15.201Z,19.92
2023-07-18T02:32:44.320Z,19.95
2023-07-18T02:35:18.442Z,19.99
2023-07-18T02:37:46.146Z,20.03
2023-07-18T02:40:16.428Z,20.09
2023-07-18T02:42:44.823Z,20.15
2023-07-18T02:45:14.586Z,20.21
2023-07-18T02:47:42.374Z,20.27
2023-07-18T02:50:10.356Z,20.33
2023-07-18T02:52:39.709Z,20.36
2023-07-18T02:55:08.183Z,20.41
2023-07-18T02:57:36.560Z,20.46
2023-07-18T03:00:08.238Z,20.53
2023-07-18T03:02:36.060Z,20.58
2023-07-18T03:05:04.427Z,20.59
2023-07-18T03:07:32.087Z,20.60
2023-07-18T03:10:00.282Z,20.62
2023-07-18T03:12:28.015Z,20.69
2023-07-18T03:14:55.482Z,20.82
2023-07-18T03:17:23.925Z,20.91
2023-07-18T03:19:51.612Z,20.88
2023-07-18T03:22:20.069Z,20.82
2023-07-18T03:24:48.279Z,20.74
2023-07-18T03:27:16.009Z,20.70
2023-07-18T03:29:44.652Z,20.65
2023-07-18T03:32:13.303Z,20.61
2023-07-18T03:34:41.178Z,20.60
2023-07-18T03:37:09.795Z,20.56
2023-07-18T03:39:37.903Z,20.54
2023-07-18T03:42:06.274Z,20.50
2023-07-18T03:44:34.379Z,20.51
2023-07-18T03:47:11.192Z,20.46
2023-07-18T03:49:31.615Z,20.40
2023-07-18T03:51:59.829Z,20.36
2023-07-18T03:54:27.662Z,20.31
2023-07-18T03:56:55.770Z,20.29
2023-07-18T03:59:23.358Z,20.25
2023-07-18T04:01:51.114Z,20.20
2023-07-18T04:04:19.092Z,20.15
2023-07-18T04:06:46.755Z,20.17
2023-07-18T04:09:14.751Z,20.20
2023-07-18T04:11:44.113Z,20.28
2023-07-18T04:14:11.893Z,20.41
2023-07-18T04:16:39.809Z,20.60
2023-07-18T04:19:08.809Z,21.14
2023-07-18T04:21:36.541Z,21.83
2023-07-18T04:24:05.515Z,22.41
2023-07-18T04:26:33.314Z,22.92
2023-07-18T04:29:01.245Z,22.92
2023-07-18T04:31:28.835Z,22.97
2023-07-18T04:33:56.404Z,23.31
2023-07-18T04:36:25.681Z,23.95
2023-07-18T04:38:53.470Z,24.58
2023-07-18T04:41:21.699Z,24.68
2023-07-18T04:43:49.937Z,24.67
2023-07-18T04:46:17.503Z,24.71
2023-07-18T04:48:45.219Z,25.46
2023-07-18T04:51:13.622Z,26.35
2023-07-18T04:53:41.302Z,27.18
2023-07-18T04:56:09.309Z,27.67
2023-07-18T04:58:37.163Z,27.94
2023-07-18T05:01:05.074Z,28.29
2023-07-18T05:03:44.447Z,28.59
2023-07-18T05:06:03.267Z,28.95
2023-07-18T05:08:30.890Z,29.22
2023-07-18T05:11:04.509Z,29.68
2023-07-18T05:13:32.347Z,29.87
2023-07-18T05:16:03.168Z,29.95
2023-07-18T05:18:30.953Z,30.06
2023-07-18T05:20:59.404Z,30.12
2023-07-18T05:23:27.116Z,30.16
2023-07-18T05:25:56.983Z,30.20
2023-07-18T05:28:26.967Z,30.31
2023-07-18T05:30:54.550Z,30.48
2023-07-18T05:33:22.402Z,30.73
2023-07-18T05:35:50.073Z,30.92
2023-07-18T05:38:18.182Z,31.01
2023-07-18T05:40:45.677Z,31.20
2023-07-18T05:43:13.437Z,31.68
2023-07-18T05:46:03.377Z,31.81
2023-07-18T05:48:33.200Z,32.19
2023-07-18T05:51:01.976Z,32.51
2023-07-18T05:53:29.457Z,32.35
2023-07-18T05:55:57.084Z,32.43
2023-07-18T05:58:24.998Z,32.52
2023-07-18T06:00:52.685Z,32.46
2023-07-18T06:03:21.711Z,32.52
2023-07-18T06:05:55.974Z,32.68
2023-07-18T06:08:23.780Z,32.68
2023-07-18T06:10:57.303Z,32.41
2023-07-18T06:13:25.034Z,32.00
2023-07-18T06:15:52.948Z,31.80
2023-07-18T06:18:21.822Z,31.28
2023-07-18T06:20:50.705Z,30.95
2023-07-18T06:23:18.437Z,30.72
2023-07-18T06:25:46.332Z,30.45
2023-07-18T06:28:13.989Z,30.10
2023-07-18T06:30:41.750Z,29.81
2023-07-18T06:33:09.899Z,29.88
2023-07-18T06:35:38.299Z,30.05
2023-07-18T06:38:05.981Z,30.14
2023-07-18T06:40:33.557Z,29.97
2023-07-18T06:43:01.218Z,29.62
2023-07-18T06:45:28.891Z,29.15
2023-07-18T06:47:56.891Z,28.93
2023-07-18T06:50:25.059Z,28.85
2023-07-18T06:52:52.943Z,28.66
2023-07-18T06:55:20.921Z,28.68
2023-07-18T06:57:49.628Z,29.05
2023-07-18T07:00:20.269Z,29.36
2023-07-18T07:02:47.860Z,29.60
2023-07-18T07:05:15.779Z,29.48
2023-07-18T07:07:43.929Z,29.44
2023-07-18T07:10:11.689Z,29.70
2023-07-18T07:12:39.926Z,29.70
2023-07-18T07:15:08.374Z,29.85
2023-07-18T07:17:36.515Z,30.10
2023-07-18T07:20:14.689Z,30.19
2023-07-18T07:22:44.032Z,30.41
2023-07-18T07:25:13.593Z,30.71
2023-07-18T07:27:43.599Z,30.98
2023-07-18T07:30:18.823Z,31.17
2023-07-18T07:32:50.742Z,31.00
2023-07-18T07:35:20.656Z,30.87
2023-07-18T07:37:50.078Z,30.92
2023-07-18T07:40:19.115Z,31.18
2023-07-18T07:42:47.265Z,31.49
2023-07-18T07:45:16.780Z,31.48
2023-07-18T07:47:44.520Z,31.35
2023-07-18T07:50:13.257Z,31.14
2023-07-18T07:52:40.816Z,31.13
2023-07-18T07:55:11.040Z,30.97
2023-07-18T07:57:39.007Z,30.90
2023-07-18T08:00:08.125Z,30.90
2023-07-18T08:02:35.858Z,31.01
2023-07-18T08:05:04.081Z,31.01
2023-07-18T08:07:31.880Z,31.09
2023-07-18T08:09:59.703Z,31.28
2023-07-18T08:12:27.508Z,31.37
2023-07-18T08:14:55.124Z,31.46
2023-07-18T08:17:22.846Z,31.41
2023-07-18T08:19:50.312Z,31.33
2023-07-18T08:22:18.519Z,31.13
2023-07-18T08:24:46.091Z,31.25
2023-07-18T08:27:13.565Z,31.25
2023-07-18T08:29:42.572Z,31.24
2023-07-18T08:32:11.973Z,30.96
2023-07-18T08:34:39.581Z,30.83
2023-07-18T08:37:08.994Z,31.09
2023-07-18T08:39:37.837Z,31.43
2023-07-18T08:42:07.429Z,31.65
2023-07-18T08:44:39.089Z,31.80
2023-07-18T08:47:08.813Z,31.90
2023-07-18T08:49:40.429Z,32.07
2023-07-18T08:52:08.512Z,32.15
2023-07-18T08:54:36.161Z,32.05
2023-07-18T08:57:05.697Z,32.13
2023-07-18T08:59:33.864Z,32.18
2023-07-18T09:02:01.921Z,32.42
2023-07-18T09:04:31.923Z,32.69
2023-07-18T09:07:01.457Z,32.92
2023-07-18T09:09:29.296Z,33.14
2023-07-18T09:12:05.253Z,33.31
2023-07-18T09:14:35.242Z,33.38
2023-07-18T09:17:05.433Z,33.46
2023-07-18T09:19:49.084Z,33.49
2023-07-18T09:22:21.662Z,33.71
2023-07-18T09:24:50.652Z,33.83
2023-07-18T09:27:20.134Z,33.81
2023-07-18T09:29:49.832Z,33.71
2023-07-18T09:32:27.866Z,33.76
2023-07-18T09:35:00.378Z,33.93
2023-07-18T09:37:38.499Z,34.19
2023-07-18T09:40:07.844Z,34.48
2023-07-18T09:42:36.019Z,34.47
2023-07-18T09:47:39.369Z,34.39
2023-07-18T09:50:07.447Z,34.43
2023-07-18T09:52:39.863Z,34.47
2023-07-18T09:55:10.702Z,34.43
2023-07-18T09:57:43.535Z,34.32
2023-07-18T10:00:12.727Z,34.32
2023-07-18T10:02:41.079Z,34.38
2023-07-18T10:05:14.741Z,34.36
2023-07-18T10:07:44.158Z,34.31
2023-07-18T10:10:13.127Z,34.44
2023-07-18T10:13:00.155Z,34.57
2023-07-18T10:15:29.552Z,34.37
2023-07-18T10:18:17.703Z,34.26
2023-07-18T10:21:01.973Z,34.30
2023-07-18T10:23:42.803Z,34.27
2023-07-18T10:26:10.811Z,34.31
2023-07-18T10:28:46.892Z,34.30
2023-07-18T10:31:37.370Z,34.14
2023-07-18T10:34:16.631Z,34.09
2023-07-18T10:37:01.782Z,34.08
2023-07-18T10:39:46.849Z,34.27
2023-07-18T10:42:22.355Z,34.35
2023-07-18T10:45:04.653Z,34.49
2023-07-18T10:47:36.716Z,34.46
2023-07-18T10:50:07.212Z,34.50
2023-07-18T10:52:35.710Z,34.64
2023-07-18T10:55:06.790Z,34.74
2023-07-18T10:57:39.552Z,34.78
2023-07-18T11:00:08.731Z,34.96
2023-07-18T11:02:42.717Z,34.94
2023-07-18T11:05:12.916Z,34.93
2023-07-18T11:07:46.674Z,34.67
2023-07-18T11:10:15.245Z,34.62
2023-07-18T11:12:43.865Z,34.62
2023-07-18T11:15:13.253Z,34.61
2023-07-18T11:17:42.826Z,34.50
2023-07-18T11:20:12.567Z,34.47
2023-07-18T11:22:41.160Z,34.49
2023-07-18T11:25:11.884Z,34.53
2023-07-18T11:27:39.913Z,34.50
2023-07-18T11:30:12.663Z,34.55
2023-07-18T11:32:45.986Z,34.51
2023-07-18T11:35:21.033Z,34.49
2023-07-18T11:37:53.193Z,34.36
2023-07-18T11:40:26.573Z,34.37
2023-07-18T11:42:58.662Z,34.38
2023-07-18T11:45:28.469Z,34.45
2023-07-18T11:47:59.930Z,34.43
2023-07-18T11:50:30.926Z,34.27
2023-07-18T11:52:59.811Z,34.15
2023-07-18T11:55:28.011Z,34.01
2023-07-18T11:57:56.423Z,34.05
2023-07-18T12:00:24.221Z,34.08
2023-07-18T12:02:52.971Z,34.17
2023-07-18T12:05:21.616Z,34.18
2023-07-18T12:07:50.272Z,34.10
2023-07-18T12:10:19.304Z,34.02
2023-07-18T12:12:47.388Z,33.92
2023-07-18T12:15:14.827Z,33.93
2023-07-18T12:17:42.561Z,33.82
2023-07-18T12:20:11.892Z,33.60
2023-07-18T12:22:39.317Z,33.29
2023-07-18T12:25:08.106Z,33.16
2023-07-18T12:27:36.004Z,33.28
2023-07-18T12:30:05.165Z,33.38
2023-07-18T12:32:32.966Z,33.30
2023-07-18T12:35:00.480Z,33.27
2023-07-18T12:37:28.132Z,33.26
2023-07-18T12:39:55.610Z,33.28
2023-07-18T12:42:23.534Z,33.20
2023-07-18T12:44:52.253Z,33.06
2023-07-18T12:47:19.937Z,33.06
2023-07-18T12:52:16.641Z,33.07
2023-07-18T12:54:44.532Z,33.00
2023-07-18T12:57:12.476Z,33.00
2023-07-18T12:59:42.425Z,32.92
2023-07-18T13:02:13.881Z,32.96
2023-07-18T13:04:42.569Z,32.94
2023-07-18T13:07:10.560Z,32.97
2023-07-18T13:09:39.395Z,33.01
2023-07-18T13:12:08.592Z,32.91
2023-07-18T13:14:36.598Z,32.82
2023-07-18T13:17:04.701Z,32.67
2023-07-18T13:19:32.513Z,32.53
2023-07-18T13:22:00.406Z,32.55
2023-07-18T13:24:28.208Z,32.48
2023-07-18T13:26:56.174Z,32.44
2023-07-18T13:29:24.283Z,32.44
2023-07-18T13:31:53.969Z,32.35
2023-07-18T13:34:23.266Z,32.43
2023-07-18T13:36:53.525Z,32.49
2023-07-18T13:39:21.643Z,32.52
2023-07-18T13:41:49.200Z,32.45
2023-07-18T13:44:17.057Z,32.52
2023-07-18T13:46:45.417Z,32.51
2023-07-18T13:49:12.897Z,32.46
2023-07-18T13:51:40.802Z,32.36
2023-07-18T13:54:08.617Z,32.34
2023-07-18T13:56:36.825Z,32.15
2023-07-18T13:59:04.609Z,31.99
2023-07-18T14:01:32.667Z,31.96
2023-07-18T14:04:01.401Z,32.00
2023-07-18T14:06:29.459Z,31.97
2023-07-18T14:08:58.378Z,31.83
2023-07-18T14:11:28.230Z,31.74
2023-07-18T14:13:55.715Z,31.69
2023-07-18T14:16:23.506Z,31.76
2023-07-18T14:18:52.103Z,31.72
2023-07-18T14:21:19.971Z,31.74
2023-07-18T14:23:47.603Z,31.78
2023-07-18T14:26:15.526Z,31.80
2023-07-18T14:28:43.375Z,31.81
2023-07-18T14:31:11.191Z,31.78
2023-07-18T14:33:45.394Z,31.73
2023-07-18T14:36:08.208Z,31.72
2023-07-18T14:38:36.106Z,31.66
2023-07-18T14:41:04.009Z,31.49
2023-07-18T14:43:34.024Z,31.44
2023-07-18T14:46:03.538Z,31.42
2023-07-18T14:48:31.393Z,31.45
2023-07-18T14:50:59.505Z,31.52
2023-07-18T14:53:27.011Z,31.52
2023-07-18T14:55:54.757Z,31.59
2023-07-18T14:58:22.428Z,31.63
2023-07-18T15:00:51.326Z,31.63
2023-07-18T15:03:19.006Z,31.57
2023-07-18T15:05:46.885Z,31.53
2023-07-18T15:08:14.775Z,31.52
2023-07-18T15:10:42.474Z,31.50
2023-07-18T15:13:10.080Z,31.45
2023-07-18T15:15:38.766Z,31.44
2023-07-18T15:18:07.436Z,31.39
2023-07-18T15:20:35.291Z,31.35
2023-07-18T15:23:04.010Z,31.24
2023-07-18T15:25:32.663Z,31.17
2023-07-18T15:28:00.394Z,31.10
2023-07-18T15:30:28.223Z,31.01
2023-07-18T15:32:55.745Z,30.91
2023-07-18T15:35:23.284Z,30.81
2023-07-18T15:37:51.068Z,30.75
2023-07-18T15:40:18.991Z,30.70
2023-07-18T15:42:46.591Z,30.59
2023-07-18T15:45:14.915Z,30.56
2023-07-18T15:47:45.074Z,30.54
2023-07-18T15:50:15.966Z,30.51
2023-07-18T15:52:47.330Z,30.48
2023-07-18T15:55:15.063Z,30.44
2023-07-18T15:57:43.179Z,30.44
2023-07-18T16:00:14.765Z,30.43
2023-07-18T16:02:43.188Z,30.35
2023-07-18T16:05:14.242Z,30.28
2023-07-18T16:07:41.939Z,30.23
2023-07-18T16:10:10.675Z,30.19
2023-07-18T16:12:38.408Z,30.11
2023-07-18T16:15:07.393Z,30.03
2023-07-18T16:17:34.918Z,30.03
2023-07-18T16:20:04.800Z,30.05
2023-07-18T16:22:32.517Z,29.96
2023-07-18T16:25:00.647Z,29.81
2023-07-18T16:27:28.154Z,29.74
2023-07-18T16:29:55.908Z,29.63
2023-07-18T16:32:26.829Z,29.59
2023-07-18T16:34:53.103Z,29.52
2023-07-18T16:37:22.207Z,29.49
2023-07-18T16:39:56.246Z,29.44
2023-07-18T16:42:24.675Z,29.39
2023-07-18T16:44:52.797Z,29.27
2023-07-18T16:47:20.982Z,29.18
2023-07-18T16:49:51.108Z,29.10
2023-07-18T16:52:20.439Z,29.05
2023-07-18T16:54:48.165Z,28.98
2023-07-18T16:57:17.088Z,28.94
2023-07-18T16:59:44.901Z,28.87
2023-07-18T17:02:12.779Z,28.81
2023-07-18T17:04:40.547Z,28.74
2023-07-18T17:07:08.478Z,28.67
2023-07-18T17:09:35.967Z,28.59
2023-07-18T17:12:04.907Z,28.49
2023-07-18T17:14:33.373Z,28.42
2023-07-18T17:17:01.802Z,28.31
2023-07-18T17:19:33.094Z,28.22
2023-07-18T17:22:05.692Z,28.14
2023-07-18T17:24:33.676Z,28.03
2023-07-18T17:27:03.104Z,27.94
2023-07-18T17:29:30.659Z,27.87
2023-07-18T17:32:01.155Z,27.79
2023-07-18T17:34:29.269Z,27.70
2023-07-18T17:37:00.903Z,27.60
2023-07-18T17:39:34.178Z,27.53
2023-07-18T17:42:05.153Z,27.42
2023-07-18T17:44:34.008Z,27.33
2023-07-18T17:47:01.715Z,27.23
2023-07-18T17:49:29.772Z,27.15
2023-07-18T17:51:57.577Z,27.08
2023-07-18T17:54:25.625Z,27.01
2023-07-18T17:56:53.533Z,26.94
2023-07-18T17:59:21.346Z,26.88
2023-07-18T18:01:49.033Z,26.83
2023-07-18T18:04:17.771Z,26.78
2023-07-18T18:06:47.796Z,26.71
2023-07-18T18:09:17.165Z,26.64
2023-07-18T18:11:44.674Z,26.58
2023-07-18T18:14:12.058Z,26.50
2023-07-18T18:16:40.144Z,26.41
2023-07-18T18:19:08.617Z,26.33
2023-07-18T18:21:36.630Z,26.28
2023-07-18T18:24:07.456Z,26.22
2023-07-18T18:26:36.500Z,26.14
2023-07-18T18:29:11.383Z,26.07
2023-07-18T18:31:39.823Z,25.94
2023-07-18T18:34:08.974Z,25.78
2023-07-18T18:36:39.412Z,25.59
2023-07-18T18:39:13.786Z,25.43
2023-07-18T18:41:44.698Z,25.23
2023-07-18T18:44:12.779Z,25.03
2023-07-18T18:46:45.990Z,24.86
2023-07-18T18:49:25.966Z,24.72
2023-07-18T18:51:45.790Z,24.60
2023-07-18T18:54:13.667Z,24.49
2023-07-18T18:56:41.378Z,24.40
2023-07-18T18:59:08.836Z,24.29
2023-07-18T19:01:38.569Z,24.20
2023-07-18T19:04:06.276Z,24.14
2023-07-18T19:06:34.009Z,24.08
2023-07-18T19:09:03.646Z,24.04
2023-07-18T19:11:31.183Z,24.02
2023-07-18T19:14:00.529Z,24.00
2023-07-18T19:16:38.891Z,24.00
2023-07-18T19:18:57.885Z,23.97
2023-07-18T19:21:29.901Z,23.96
2023-07-18T19:23:58.742Z,23.94
2023-07-18T19:26:27.855Z,23.84
2023-07-18T19:28:55.802Z,23.63
2023-07-18T19:31:23.711Z,23.43
2023-07-18T19:33:58.537Z,23.25
2023-07-18T19:36:27.637Z,23.10
2023-07-18T19:38:55.606Z,22.96
2023-07-18T19:41:24.754Z,22.79
2023-07-18T19:44:00.267Z,22.63
2023-07-18T19:46:30.233Z,22.52
2023-07-18T19:48:58.405Z,22.47
2023-07-18T19:51:26.517Z,22.43
2023-07-18T19:53:54.516Z,22.35
2023-07-18T19:56:22.551Z,22.31
2023-07-18T19:58:51.613Z,22.27
2023-07-18T20:01:22.925Z,22.23
2023-07-18T20:03:59.207Z,22.19
2023-07-18T20:06:20.800Z,22.11
2023-07-18T20:08:48.697Z,22.04
2023-07-18T20:11:16.291Z,21.99
2023-07-18T20:13:44.245Z,21.95
2023-07-18T20:16:12.322Z,21.90
2023-07-18T20:18:40.586Z,21.86
2023-07-18T20:21:08.432Z,21.81
2023-07-18T20:23:36.402Z,21.76
2023-07-18T20:26:03.977Z,21.70
2023-07-18T20:28:32.324Z,21.64
2023-07-18T20:31:00.184Z,21.62
2023-07-18T20:33:28.000Z,21.55
2023-07-18T20:35:55.890Z,21.52
2023-07-18T20:38:23.634Z,21.48
2023-07-18T20:40:51.585Z,21.43
2023-07-18T20:43:20.160Z,21.37
2023-07-18T20:46:02.185Z,21.33
2023-07-18T20:48:32.966Z,21.29
2023-07-18T20:51:00.710Z,21.26
2023-07-18T20:53:30.218Z,21.23
2023-07-18T20:55:58.188Z,21.17
2023-07-18T20:58:25.963Z,21.14
2023-07-18T21:00:53.565Z,21.10
2023-07-18T21:03:21.475Z,21.05
2023-07-18T21:05:51.623Z,21.00
2023-07-18T21:08:19.178Z,20.95
2023-07-18T21:10:47.018Z,20.90
2023-07-18T21:13:14.666Z,20.85
2023-07-18T21:15:42.362Z,20.79
2023-07-18T21:18:09.959Z,20.72
2023-07-18T21:20:37.763Z,20.65
2023-07-18T21:23:05.667Z,20.56
2023-07-18T21:25:33.228Z,20.49
2023-07-18T21:28:00.917Z,20.44
2023-07-18T21:30:28.516Z,20.37
2023-07-18T21:32:56.313Z,20.34
2023-07-18T21:35:24.193Z,20.29
2023-07-18T21:37:51.970Z,20.20
2023-07-18T21:40:19.800Z,20.16
2023-07-18T21:42:50.730Z,20.11
2023-07-18T21:45:18.771Z,20.04
2023-07-18T21:47:47.215Z,19.99
2023-07-18T21:50:15.549Z,19.97
2023-07-18T21:52:44.272Z,19.97
2023-07-18T21:55:12.104Z,19.94
2023-07-18T21:57:40.275Z,19.92
2023-07-18T22:00:09.138Z,19.89
2023-07-18T22:02:38.863Z,19.85
2023-07-18T22:05:07.294Z,19.79
2023-07-18T22:07:34.967Z,19.75
2023-07-18T22:10:04.665Z,19.73
2023-07-18T22:12:32.280Z,19.68
2023-07-18T22:15:00.581Z,19.60
2023-07-18T22:17:29.946Z,19.55
2023-07-18T22:19:57.630Z,19.50
2023-07-18T22:22:25.371Z,19.46
2023-07-18T22:24:52.918Z,19.41
2023-07-18T22:27:20.463Z,19.35
2023-07-18T22:29:48.302Z,19.28
2023-07-18T22:32:16.165Z,19.24
2023-07-18T22:34:44.714Z,19.16
2023-07-18T22:37:12.241Z,19.07
2023-07-18T22:39:41.953Z,19.02
2023-07-18T22:42:20.918Z,19.01
2023-07-18T22:44:49.677Z,19.00
2023-07-18T22:47:17.891Z,18.98
2023-07-18T22:49:46.527Z,18.96
2023-07-18T22:52:19.769Z,18.93
2023-07-18T22:54:50.163Z,18.92
2023-07-18T22:57:18.206Z,18.88
2023-07-18T22:59:47.651Z,18.84
2023-07-18T23:02:16.010Z,18.82
2023-07-18T23:04:43.803Z,18.81
2023-07-18T23:07:11.594Z,18.78
2023-07-18T23:09:39.610Z,18.77
2023-07-18T23:12:08.548Z,18.73
2023-07-18T23:14:37.992Z,18.69
2023-07-18T23:17:05.778Z,18.66
2023-07-18T23:19:33.439Z,18.65
2023-07-18T23:22:01.236Z,18.66
2023-07-18T23:24:28.897Z,18.67
2023-07-18T23:26:56.544Z,18.66
2023-07-18T23:29:24.621Z,18.64
2023-07-18T23:31:52.065Z,18.64
2023-07-18T23:34:19.604Z,18.61
2023-07-18T23:36:47.482Z,18.59
2023-07-18T23:39:15.040Z,18.51
2023-07-18T23:41:42.761Z,18.44
2023-07-18T23:44:10.379Z,18.44
2023-07-18T23:46:38.379Z,18.41
2023-07-18T23:49:05.938Z,18.37
2023-07-18T23:51:33.907Z,18.32
2023-07-18T23:54:01.520Z,18.31
2023-07-18T23:56:29.377Z,18.27
2023-07-18T23:58:57.128Z,18.22
